createdAt,value
2022-10-13T00:00:25.297Z,101333.78
2022-10-13T00:02:53.235Z,101331.09
2022-10-13T00:05:21.398Z,101330.16
2022-10-13T00:07:49.356Z,101331.97
2022-10-13T00:10:17.323Z,101319.47
2022-10-13T00:12:46.606Z,101314.19
2022-10-13T00:15:16.210Z,101317.72
2022-10-13T00:17:44.215Z,101308.84
2022-10-13T00:20:13.112Z,101307.97
2022-10-13T00:22:41.085Z,101308.78
2022-10-13T00:25:09.932Z,101312.19
2022-10-13T00:27:58.738Z,101171.81
2022-10-13T00:30:35.116Z,101319.66
2022-10-13T00:33:03.040Z,101310.75
2022-10-13T00:35:31.103Z,101310.47
2022-10-13T00:37:59.053Z,101316.59
2022-10-13T00:40:31.101Z,101314.56
2022-10-13T00:43:00.450Z,101303.84
2022-10-13T00:45:29.834Z,101305.44
2022-10-13T00:47:59.904Z,101312.38
2022-10-13T00:50:32.930Z,101298.16
2022-10-13T00:53:05.651Z,101307.69
2022-10-13T00:55:37.985Z,101304.94
2022-10-13T00:58:11.665Z,101305.75
2022-10-13T01:00:39.803Z,101312.81
2022-10-13T01:03:07.758Z,101299.41
2022-10-13T01:05:36.715Z,101308.31
2022-10-13T01:08:05.253Z,101307.41
2022-10-13T01:10:51.504Z,101306.47
2022-10-13T01:13:28.034Z,101309.97
2022-10-13T01:16:06.110Z,101301.06
2022-10-13T01:18:43.655Z,101303.72
2022-10-13T01:21:26.061Z,101302.03
2022-10-13T01:24:18.007Z,101301.16
2022-10-13T01:27:04.783Z,101294.09
2022-10-13T01:30:08.554Z,101298.56
2022-10-13T01:33:04.389Z,101291.59
2022-10-13T01:35:45.329Z,101287.38
2022-10-13T01:38:23.186Z,101283.78
2022-10-13T01:41:00.498Z,101283.84
2022-10-13T01:43:32.030Z,101290.03
2022-10-13T01:46:04.775Z,101287.56
2022-10-13T01:48:36.819Z,101285.84
2022-10-13T01:51:08.286Z,101278.91
2022-10-13T01:53:37.069Z,101278.06
2022-10-13T01:56:05.512Z,101276.28
2022-10-13T01:58:36.601Z,101274.56
2022-10-13T02:01:14.018Z,101263.03
2022-10-13T02:03:54.142Z,101271.00
2022-10-13T02:06:26.627Z,101263.72
2022-10-13T02:09:00.542Z,101261.16
2022-10-13T02:11:29.609Z,101263.72
2022-10-13T02:14:03.064Z,101253.91
2022-10-13T02:16:35.248Z,101257.28
2022-10-13T02:19:06.321Z,101253.63
2022-10-13T02:21:35.691Z,101252.66
2022-10-13T02:24:04.742Z,101250.03
2022-10-13T02:26:33.975Z,101246.41
2022-10-13T02:29:11.677Z,101243.78
2022-10-13T02:31:41.041Z,101254.41
2022-10-13T02:34:10.748Z,101252.63
2022-10-13T02:36:39.813Z,101242.97
2022-10-13T02:39:08.708Z,101245.63
2022-10-13T02:41:36.714Z,101244.88
2022-10-13T02:44:05.018Z,101243.16
2022-10-13T02:46:41.791Z,101245.03
2022-10-13T02:49:12.242Z,101247.75
2022-10-13T02:51:40.723Z,101247.88
2022-10-13T02:54:08.819Z,101247.03
2022-10-13T02:56:36.760Z,101239.91
2022-10-13T02:59:04.919Z,101246.16
2022-10-13T03:01:32.967Z,101241.03
2022-10-13T03:04:00.909Z,101240.41
2022-10-13T03:06:30.205Z,101230.88
2022-10-13T03:08:58.130Z,101235.19
2022-10-13T03:11:26.178Z,101229.78
2022-10-13T03:13:54.226Z,101226.06
2022-10-13T03:16:22.167Z,101222.34
2022-10-13T03:18:50.074Z,101230.38
2022-10-13T03:21:18.236Z,101224.03
2022-10-13T03:23:47.607Z,101226.63
2022-10-13T03:26:16.259Z,101221.13
2022-10-13T03:28:44.221Z,101200.56
2022-10-13T03:31:13.094Z,101224.88
2022-10-13T03:33:41.379Z,101224.97
2022-10-13T03:36:09.724Z,101226.63
2022-10-13T03:38:39.048Z,101231.84
2022-10-13T03:41:13.220Z,101228.22
2022-10-13T03:43:42.359Z,101231.00
2022-10-13T03:46:12.859Z,101225.56
2022-10-13T03:48:42.700Z,101232.59
2022-10-13T03:51:12.040Z,101233.41
2022-10-13T03:53:46.497Z,101226.31
2022-10-13T03:56:19.068Z,101223.50
2022-10-13T03:58:54.224Z,101235.88
2022-10-13T04:01:23.318Z,101230.53
2022-10-13T04:03:52.682Z,101234.03
2022-10-13T04:06:20.727Z,101228.66
2022-10-13T04:08:49.537Z,101232.16
2022-10-13T04:11:19.999Z,101228.50
2022-10-13T04:13:52.406Z,101228.59
2022-10-13T04:16:21.931Z,101233.94
2022-10-13T04:18:53.303Z,101230.22
2022-10-13T04:21:21.459Z,101232.00
2022-10-13T04:23:49.374Z,101222.25
2022-10-13T04:26:21.923Z,101228.44
2022-10-13T04:28:51.834Z,101227.56
2022-10-13T04:31:22.009Z,101218.69
2022-10-13T04:33:50.444Z,101211.56
2022-10-13T04:36:19.444Z,101208.84
2022-10-13T04:38:51.170Z,101209.78
2022-10-13T04:41:20.940Z,101202.72
2022-10-13T04:43:49.923Z,101206.25
2022-10-13T04:46:20.609Z,101197.41
2022-10-13T04:48:49.920Z,101202.09
2022-10-13T04:51:20.293Z,101205.59
2022-10-13T04:54:05.523Z,101201.09
2022-10-13T04:56:35.185Z,101203.09
2022-10-13T04:59:05.243Z,101201.09
2022-10-13T05:01:34.403Z,101201.81
2022-10-13T05:04:05.209Z,101197.38
2022-10-13T05:06:53.400Z,101184.97
2022-10-13T05:09:27.322Z,101182.25
2022-10-13T05:11:57.274Z,101183.94
2022-10-13T05:14:25.641Z,101181.22
2022-10-13T05:16:53.686Z,101179.50
2022-10-13T05:19:21.712Z,101187.47
2022-10-13T05:21:50.527Z,101184.03
2022-10-13T05:24:20.719Z,101180.53
2022-10-13T05:26:50.639Z,101185.88
2022-10-13T05:29:19.921Z,101181.47
2022-10-13T05:31:48.368Z,101181.41
2022-10-13T05:34:16.347Z,101170.03
2022-10-13T05:36:44.342Z,101179.47
2022-10-13T05:39:13.085Z,101181.28
2022-10-13T05:41:41.095Z,101180.34
2022-10-13T05:44:16.604Z,101182.84
2022-10-13T05:46:55.906Z,101178.22
2022-10-13T05:49:23.875Z,101176.47
2022-10-13T05:51:54.532Z,101170.09
2022-10-13T05:54:30.570Z,101169.09
2022-10-13T05:57:02.756Z,101166.59
2022-10-13T05:59:35.328Z,101162.84
2022-10-13T06:02:07.421Z,101162.69
2022-10-13T06:04:38.938Z,101155.41
2022-10-13T06:07:07.477Z,101163.22
2022-10-13T06:09:38.793Z,101166.66
2022-10-13T06:12:07.433Z,101165.75
2022-10-13T06:14:35.437Z,101175.25
2022-10-13T06:17:09.130Z,101155.59
2022-10-13T06:19:38.423Z,101154.44
2022-10-13T06:22:09.450Z,101158.72
2022-10-13T06:24:37.420Z,101154.22
2022-10-13T06:27:08.258Z,101149.50
2022-10-13T06:29:37.589Z,101104.00
2022-10-13T06:32:06.325Z,101143.03
2022-10-13T06:34:35.611Z,101139.97
2022-10-13T06:37:03.552Z,101145.28
2022-10-13T06:39:31.507Z,101144.13
2022-10-13T06:42:03.442Z,101143.94
2022-10-13T06:44:32.649Z,101148.53
2022-10-13T06:47:03.695Z,101154.38
2022-10-13T06:49:31.617Z,101153.22
2022-10-13T06:52:00.929Z,101153.91
2022-10-13T06:54:28.966Z,101154.84
2022-10-13T06:56:57.067Z,101155.41
2022-10-13T06:59:26.407Z,101157.81
2022-10-13T07:01:54.527Z,101151.47
2022-10-13T07:04:23.504Z,101147.66
2022-10-13T07:06:52.654Z,101143.28
2022-10-13T07:09:21.966Z,101142.06
2022-10-13T07:11:50.178Z,101141.59
2022-10-13T07:14:18.103Z,101148.94
2022-10-13T07:16:46.082Z,101150.41
2022-10-13T07:19:13.984Z,101155.50
2022-10-13T07:21:42.733Z,101160.84
2022-10-13T07:24:12.277Z,101143.31
2022-10-13T07:26:41.640Z,101139.31
2022-10-13T07:29:10.326Z,101135.06
2022-10-13T07:31:38.358Z,101140.66
2022-10-13T07:34:06.710Z,101139.88
2022-10-13T07:36:35.466Z,101145.19
2022-10-13T07:39:04.485Z,101150.53
2022-10-13T07:41:32.508Z,101142.34
2022-10-13T07:44:01.866Z,101142.25
2022-10-13T07:46:30.018Z,101142.50
2022-10-13T07:48:58.060Z,101144.06
2022-10-13T07:51:26.080Z,101139.31
2022-10-13T07:53:54.054Z,101135.47
2022-10-13T07:56:21.991Z,101135.47
2022-10-13T07:58:49.885Z,101129.34
2022-10-13T08:01:19.407Z,101125.00
2022-10-13T08:03:50.355Z,101125.63
2022-10-13T08:06:19.759Z,101109.81
2022-10-13T08:08:48.430Z,101134.91
2022-10-13T08:11:18.595Z,101111.25
2022-10-13T08:13:50.111Z,101111.41
2022-10-13T08:16:24.008Z,101104.56
2022-10-13T08:18:52.901Z,101099.22
2022-10-13T08:21:52.825Z,101102.28
2022-10-13T08:24:13.888Z,101089.50
2022-10-13T08:26:43.260Z,101085.50
2022-10-13T08:29:26.796Z,101099.88
2022-10-13T08:31:57.067Z,101101.66
2022-10-13T08:34:38.041Z,101100.88
2022-10-13T08:37:07.094Z,101092.63
2022-10-13T08:39:37.592Z,101093.66
2022-10-13T08:42:15.680Z,101094.13
2022-10-13T08:47:44.393Z,101095.31
2022-10-13T08:50:17.058Z,101084.97
2022-10-13T08:52:49.990Z,101079.25
2022-10-13T08:55:24.747Z,101103.25
2022-10-13T08:57:53.008Z,101113.16
2022-10-13T09:00:27.387Z,101110.09
2022-10-13T09:03:02.769Z,101104.94
2022-10-13T09:05:38.800Z,101082.75
2022-10-13T09:08:49.820Z,101024.94
2022-10-13T09:11:29.804Z,101097.34
2022-10-13T09:14:00.267Z,101084.03
2022-10-13T09:16:30.797Z,101098.41
2022-10-13T09:19:18.827Z,101112.50
2022-10-13T09:21:47.096Z,101109.44
2022-10-13T09:24:20.889Z,101113.59
2022-10-13T09:26:52.900Z,101100.28
2022-10-13T09:29:25.302Z,101110.91
2022-10-13T09:32:09.134Z,101109.16
2022-10-13T09:34:38.664Z,101104.72
2022-10-13T09:37:08.338Z,101102.13
2022-10-13T09:39:36.491Z,101100.78
2022-10-13T09:42:22.247Z,101089.63
2022-10-13T09:44:58.740Z,101095.75
2022-10-13T09:47:29.601Z,101093.19
2022-10-13T09:50:07.323Z,101093.91
2022-10-13T09:52:36.320Z,101101.03
2022-10-13T09:55:27.577Z,101104.38
2022-10-13T09:58:07.645Z,101094.78
2022-10-13T10:00:37.474Z,101094.06
2022-10-13T10:03:11.973Z,101089.44
2022-10-13T10:05:50.359Z,101088.22
2022-10-13T10:08:33.735Z,101088.44
2022-10-13T10:11:14.806Z,101077.69
2022-10-13T10:13:42.777Z,101085.59
2022-10-13T10:16:15.541Z,101072.81
2022-10-13T10:18:49.340Z,101085.28
2022-10-13T10:21:28.466Z,101073.59
2022-10-13T10:24:02.165Z,101073.63
2022-10-13T10:26:42.637Z,101079.47
2022-10-13T10:29:23.328Z,101065.84
2022-10-13T10:32:04.110Z,101073.97
2022-10-13T10:34:43.537Z,101084.56
2022-10-13T10:37:22.785Z,101065.59
2022-10-13T10:40:04.223Z,101073.09
2022-10-13T10:42:56.601Z,101072.97
2022-10-13T10:45:28.206Z,101066.28
2022-10-13T10:48:00.793Z,101061.81
2022-10-13T10:50:31.940Z,101052.34
2022-10-13T10:53:05.367Z,101055.13
2022-10-13T10:55:43.930Z,101045.06
2022-10-13T10:58:23.444Z,101046.16
2022-10-13T11:00:56.691Z,101027.78
2022-10-13T11:03:39.247Z,101034.66
2022-10-13T11:06:23.971Z,101024.88
2022-10-13T11:08:55.254Z,101029.78
2022-10-13T11:11:38.322Z,101027.31
2022-10-13T11:14:31.460Z,101004.19
2022-10-13T11:17:21.202Z,101013.22
2022-10-13T11:19:49.975Z,101010.09
2022-10-13T11:22:23.947Z,101007.63
2022-10-13T11:24:56.855Z,101003.19
2022-10-13T11:27:39.017Z,101007.72
2022-10-13T11:30:47.557Z,100999.75
2022-10-13T11:33:36.580Z,101003.25
2022-10-13T11:36:33.891Z,101000.50
2022-10-13T11:39:08.108Z,101000.63
2022-10-13T11:41:47.130Z,100990.34
2022-10-13T11:44:22.781Z,100976.69
2022-10-13T11:47:05.602Z,100978.97
2022-10-13T11:49:50.932Z,100984.72
2022-10-13T11:52:31.935Z,100979.13
2022-10-13T11:55:06.258Z,100975.44
2022-10-13T11:57:35.600Z,100973.13
2022-10-13T12:00:05.484Z,100969.91
2022-10-13T12:02:50.438Z,100970.59
2022-10-13T12:05:24.626Z,100971.16
2022-10-13T12:07:54.928Z,100974.66
2022-10-13T12:10:30.887Z,100958.72
2022-10-13T12:13:04.290Z,100966.88
2022-10-13T12:15:36.273Z,100958.22
2022-10-13T12:18:38.880Z,100958.41
2022-10-13T12:21:23.081Z,100919.97
2022-10-13T12:23:52.680Z,100960.22
2022-10-13T12:26:22.746Z,100960.50
2022-10-13T12:28:56.296Z,100956.28
2022-10-13T12:31:37.640Z,100955.78
2022-10-13T12:34:18.450Z,100954.31
2022-10-13T12:39:21.317Z,100952.84
2022-10-13T12:41:50.465Z,100946.19
2022-10-13T12:44:22.989Z,100949.69
2022-10-13T12:46:53.154Z,100953.19
2022-10-13T12:49:23.957Z,100944.09
2022-10-13T12:51:55.635Z,100938.53
2022-10-13T12:54:27.171Z,100936.31
2022-10-13T12:56:58.810Z,100934.09
2022-10-13T12:59:30.090Z,100942.78
2022-10-13T13:02:01.181Z,100937.91
2022-10-13T13:04:42.256Z,100936.78
2022-10-13T13:07:38.228Z,100931.34
2022-10-13T13:10:18.368Z,100910.19
2022-10-13T13:12:46.971Z,100934.16
2022-10-13T13:15:34.395Z,100928.09
2022-10-13T13:18:31.445Z,100939.84
2022-10-13T13:21:01.793Z,100933.44
2022-10-13T13:23:34.189Z,100931.34
2022-10-13T13:26:12.211Z,100928.31
2022-10-13T13:28:43.704Z,100930.16
2022-10-13T13:31:14.075Z,100917.00
2022-10-13T13:33:42.220Z,100931.75
2022-10-13T13:36:16.858Z,100922.63
2022-10-13T13:38:47.742Z,100923.13
2022-10-13T13:41:16.903Z,100922.28
2022-10-13T13:43:45.185Z,100918.81
2022-10-13T13:46:19.130Z,100920.56
2022-10-13T13:48:47.218Z,100916.53
2022-10-13T13:51:16.083Z,100912.75
2022-10-13T13:53:45.554Z,100916.13
2022-10-13T13:56:15.046Z,100916.63
2022-10-13T13:58:43.190Z,100918.22
2022-10-13T14:01:11.794Z,100915.22
2022-10-13T14:03:41.629Z,100919.97
2022-10-13T14:06:10.071Z,100908.59
2022-10-13T14:08:42.316Z,100921.81
2022-10-13T14:11:11.616Z,100918.38
2022-10-13T14:13:39.753Z,100914.16
2022-10-13T14:16:08.365Z,100911.34
2022-10-13T14:18:36.323Z,100906.81
2022-10-13T14:21:10.953Z,100906.91
2022-10-13T14:23:39.783Z,100898.53
2022-10-13T14:26:09.150Z,100898.22
2022-10-13T14:28:37.408Z,100894.50
2022-10-13T14:31:07.759Z,100895.41
2022-10-13T14:33:36.826Z,100888.91
2022-10-13T14:36:08.302Z,100897.53
2022-10-13T14:38:38.704Z,100896.28
2022-10-13T14:41:07.911Z,100884.63
2022-10-13T14:43:36.577Z,100884.03
2022-10-13T14:46:06.551Z,100884.16
2022-10-13T14:48:36.440Z,100886.66
2022-10-13T14:51:07.559Z,100886.78
2022-10-13T14:53:36.361Z,100887.63
2022-10-13T14:56:05.383Z,100883.44
2022-10-13T14:58:35.573Z,100895.19
2022-10-13T15:01:04.546Z,100887.78
2022-10-13T15:03:33.072Z,100890.03
2022-10-13T15:06:01.087Z,100877.72
2022-10-13T15:08:31.823Z,100887.75
2022-10-13T15:11:00.832Z,100887.53
2022-10-13T15:13:28.980Z,100881.63
2022-10-13T15:16:00.948Z,100880.22
2022-10-13T15:18:29.589Z,100882.94
2022-10-13T15:20:58.318Z,100881.97
2022-10-13T15:23:26.969Z,100882.41
2022-10-13T15:25:58.015Z,100875.16
2022-10-13T15:28:27.586Z,100878.88
2022-10-13T15:30:55.791Z,100877.56
2022-10-13T15:33:23.960Z,100878.81
2022-10-13T15:35:52.873Z,100880.78
2022-10-13T15:38:22.228Z,100872.91
2022-10-13T15:40:50.961Z,100872.56
2022-10-13T15:43:20.695Z,100873.94
2022-10-13T15:45:55.904Z,100869.94
2022-10-13T15:48:24.285Z,100862.59
2022-10-13T15:50:52.354Z,100871.09
2022-10-13T15:53:20.803Z,100865.94
2022-10-13T15:55:48.940Z,100870.97
2022-10-13T15:58:17.341Z,100872.34
2022-10-13T16:00:46.810Z,100874.81
2022-10-13T16:03:16.422Z,100874.91
2022-10-13T16:05:45.162Z,100871.13
2022-10-13T16:08:13.510Z,100869.16
2022-10-13T16:10:42.328Z,100869.56
2022-10-13T16:13:14.047Z,100857.31
2022-10-13T16:15:42.109Z,100875.34
2022-10-13T16:18:11.474Z,100872.84
2022-10-13T16:20:45.160Z,100872.69
2022-10-13T16:23:13.155Z,100871.94
2022-10-13T16:25:41.129Z,100866.28
2022-10-13T16:28:09.148Z,100869.81
2022-10-13T16:30:38.250Z,100868.78
2022-10-13T16:33:06.230Z,100866.00
2022-10-13T16:35:35.524Z,100871.19
2022-10-13T16:38:03.526Z,100869.47
2022-10-13T16:40:32.409Z,100877.34
2022-10-13T16:43:00.362Z,100870.25
2022-10-13T16:45:47.921Z,100873.19
2022-10-13T16:48:16.392Z,100868.59
2022-10-13T16:50:46.162Z,100868.72
2022-10-13T16:53:14.317Z,100871.59
2022-10-13T16:55:42.519Z,100866.44
2022-10-13T16:58:10.945Z,100860.19
2022-10-13T17:00:39.873Z,100870.84
2022-10-13T17:03:08.300Z,100873.31
2022-10-13T17:05:36.265Z,100879.94
2022-10-13T17:08:05.845Z,100885.03
2022-10-13T17:10:34.301Z,100878.38
2022-10-13T17:13:02.538Z,100883.56
2022-10-13T17:15:33.156Z,100879.22
2022-10-13T17:18:01.141Z,100886.63
2022-10-13T17:20:29.057Z,100878.06
2022-10-13T17:22:57.065Z,100885.25
2022-10-13T17:25:26.364Z,100877.47
2022-10-13T17:27:54.486Z,100878.69
2022-10-13T17:30:22.818Z,100858.41
2022-10-13T17:32:50.703Z,100875.84
2022-10-13T17:35:18.830Z,100873.47
2022-10-13T17:37:49.932Z,100883.84
2022-10-13T17:40:19.249Z,100885.56
2022-10-13T17:42:48.685Z,100890.78
2022-10-13T17:45:17.152Z,100880.41
2022-10-13T17:47:48.771Z,100897.88
2022-10-13T17:50:16.974Z,100897.66
2022-10-13T17:52:44.969Z,100895.75
2022-10-13T17:55:13.169Z,100893.25
2022-10-13T17:57:41.276Z,100879.47
2022-10-13T18:00:12.375Z,100889.72
2022-10-13T18:02:43.160Z,100883.69
2022-10-13T18:05:11.203Z,100897.94
2022-10-13T18:07:39.249Z,100880.22
2022-10-13T18:10:08.166Z,100878.31
2022-10-13T18:12:36.337Z,100885.50
2022-10-13T18:15:04.701Z,100894.69
2022-10-13T18:17:34.039Z,100897.88
2022-10-13T18:20:02.044Z,100893.84
2022-10-13T18:22:30.199Z,100884.47
2022-10-13T18:25:00.068Z,100887.44
2022-10-13T18:27:28.118Z,100895.47
2022-10-13T18:29:56.086Z,100901.06
2022-10-13T18:32:24.330Z,100893.31
2022-10-13T18:34:56.152Z,100899.91
2022-10-13T18:37:24.210Z,100892.94
2022-10-13T18:39:52.129Z,100902.72
2022-10-13T18:42:20.175Z,100905.56
2022-10-13T18:44:48.136Z,100895.56
2022-10-13T18:47:16.068Z,100905.06
2022-10-13T18:49:44.008Z,100901.44
2022-10-13T18:52:13.575Z,100894.69
2022-10-13T18:54:41.692Z,100885.88
2022-10-13T18:57:09.601Z,100894.03
2022-10-13T18:59:38.677Z,100892.38
2022-10-13T19:02:19.155Z,100904.59
2022-10-13T19:04:48.962Z,100892.03
2022-10-13T19:07:18.667Z,100881.63
2022-10-13T19:09:46.877Z,100903.03
2022-10-13T19:12:15.070Z,100903.88
2022-10-13T19:14:44.555Z,100895.75
2022-10-13T19:17:12.515Z,100899.56
2022-10-13T19:19:41.456Z,100900.78
2022-10-13T19:22:10.082Z,100891.13
2022-10-13T19:24:39.599Z,100901.84
2022-10-13T19:27:07.671Z,100897.88
2022-10-13T19:29:37.355Z,100864.03
2022-10-13T19:32:05.917Z,100895.44
2022-10-13T19:34:33.989Z,100902.38
2022-10-13T19:37:03.529Z,100898.91
2022-10-13T19:39:31.547Z,100900.63
2022-10-13T19:42:01.027Z,100899.88
2022-10-13T19:44:29.093Z,100901.34
2022-10-13T19:46:57.089Z,100895.03
2022-10-13T19:49:26.412Z,100891.63
2022-10-13T19:51:54.904Z,100894.28
2022-10-13T19:54:23.676Z,100897.91
2022-10-13T19:56:51.838Z,100902.84
2022-10-13T19:59:21.326Z,100883.41
2022-10-13T20:01:49.473Z,100907.41
2022-10-13T20:04:20.496Z,100906.47
2022-10-13T20:06:49.191Z,100905.06
2022-10-13T20:09:17.618Z,100907.03
2022-10-13T20:11:46.488Z,100894.63
2022-10-13T20:14:15.069Z,100900.06
2022-10-13T20:16:44.949Z,100895.31
2022-10-13T20:19:14.431Z,100896.19
2022-10-13T20:21:43.028Z,100913.38
2022-10-13T20:24:12.230Z,100905.13
2022-10-13T20:26:40.849Z,100920.00
2022-10-13T20:29:09.015Z,100906.28
2022-10-13T20:31:37.158Z,100908.09
2022-10-13T20:34:06.612Z,100908.28
2022-10-13T20:36:38.519Z,100907.13
2022-10-13T20:39:07.649Z,100900.41
2022-10-13T20:41:38.343Z,100898.69
2022-10-13T20:44:10.326Z,100899.31
2022-10-13T20:46:38.337Z,100908.09
2022-10-13T20:49:12.247Z,100899.31
2022-10-13T20:51:42.548Z,100894.19
2022-10-13T20:54:11.316Z,100892.56
2022-10-13T20:56:39.891Z,100882.94
2022-10-13T20:59:09.981Z,100901.28
2022-10-13T21:01:38.246Z,100897.84
2022-10-13T21:04:07.689Z,100892.81
2022-10-13T21:06:36.056Z,100897.31
2022-10-13T21:09:05.720Z,100892.03
2022-10-13T21:11:34.196Z,100892.91
2022-10-13T21:14:06.208Z,100889.50
2022-10-13T21:16:34.768Z,100894.78
2022-10-13T21:19:03.583Z,100888.09
2022-10-13T21:21:34.600Z,100891.41
2022-10-13T21:24:05.651Z,100890.69
2022-10-13T21:26:34.835Z,100890.78
2022-10-13T21:29:03.719Z,100891.75
2022-10-13T21:31:32.670Z,100891.75
2022-10-13T21:34:00.815Z,100891.03
2022-10-13T21:36:30.343Z,100885.69
2022-10-13T21:39:01.115Z,100883.06
2022-10-13T21:41:29.698Z,100882.22
2022-10-13T21:43:58.473Z,100890.41
2022-10-13T21:46:32.902Z,100882.41
2022-10-13T21:49:02.562Z,100890.34
2022-10-13T21:51:32.507Z,100887.22
2022-10-13T21:54:03.911Z,100889.16
2022-10-13T21:56:32.806Z,100888.97
2022-10-13T21:59:01.672Z,100890.88
2022-10-13T22:01:30.190Z,100894.31
2022-10-13T22:04:02.401Z,100892.59
2022-10-13T22:06:32.238Z,100895.09
2022-10-13T22:09:03.467Z,100888.34
2022-10-13T22:11:33.740Z,100888.09
2022-10-13T22:14:07.832Z,100893.44
2022-10-13T22:16:38.844Z,100888.03
2022-10-13T22:19:07.138Z,100885.53
2022-10-13T22:21:40.654Z,100884.56
2022-10-13T22:24:13.266Z,100878.13
2022-10-13T22:26:42.549Z,100881.13
2022-10-13T22:29:13.040Z,100876.63
2022-10-13T22:31:41.910Z,100878.44
2022-10-13T22:34:12.816Z,100874.66
2022-10-13T22:36:44.420Z,100880.19
2022-10-13T22:39:15.024Z,100869.88
2022-10-13T22:41:43.221Z,100871.69
2022-10-13T22:44:11.427Z,100883.41
2022-10-13T22:46:39.883Z,100882.53
2022-10-13T22:49:13.302Z,100876.25
2022-10-13T22:51:41.503Z,100870.44
2022-10-13T22:54:10.606Z,100871.31
2022-10-13T22:56:41.776Z,100865.41
2022-10-13T22:59:10.344Z,100860.25
2022-10-13T23:01:38.326Z,100872.69
2022-10-13T23:04:06.845Z,100870.06
2022-10-13T23:06:36.316Z,100865.06
2022-10-13T23:09:09.170Z,100871.59
2022-10-13T23:11:39.016Z,100861.59
2022-10-13T23:14:09.205Z,100868.13
2022-10-13T23:16:37.256Z,100871.59
2022-10-13T23:19:05.496Z,100851.53
2022-10-13T23:21:33.537Z,100862.41
2022-10-13T23:24:03.032Z,100866.72
2022-10-13T23:26:31.972Z,100868.44
2022-10-13T23:29:01.757Z,100862.84
2022-10-13T23:31:30.068Z,100868.28
2022-10-13T23:33:58.757Z,100855.06
2022-10-13T23:36:30.185Z,100850.53
2022-10-13T23:39:00.783Z,100857.34
2022-10-13T23:41:29.321Z,100855.38
2022-10-13T23:43:57.747Z,100850.34
2022-10-13T23:46:27.757Z,100850.19
2022-10-13T23:48:55.889Z,100856.63
2022-10-13T23:51:25.873Z,100847.44
2022-10-13T23:53:54.284Z,100846.34
2022-10-13T23:56:22.660Z,100847.13
2022-10-13T23:58:51.550Z,100842.16
